sensor_id;sensor_type;location;lat;lon;timestamp;P1;durP1;ratioP1;P2;durP2;ratioP2
4676;SDS011;2352;48.180;11.478;2022-08-18T00:01:06;4.40;;;4.10;;
4676;SDS011;2352;48.180;11.478;2022-08-18T00:04:11;5.10;;;4.70;;
4676;SDS011;2352;48.180;11.478;2022-08-18T00:07:34;6.78;;;4.85;;
4676;SDS011;2352;48.180;11.478;2022-08-18T00:10:38;4.97;;;4.60;;
4676;SDS011;2352;48.180;11.478;2022-08-18T00:13:44;4.68;;;4.38;;
4676;SDS011;2352;48.180;11.478;2022-08-18T00:16:47;5.22;;;4.82;;
4676;SDS011;2352;48.180;11.478;2022-08-18T00:19:51;5.57;;;5.10;;
4676;SDS011;2352;48.180;11.478;2022-08-18T00:22:54;5.53;;;5.13;;
4676;SDS011;2352;48.180;11.478;2022-08-18T00:25:57;5.28;;;4.88;;
4676;SDS011;2352;48.180;11.478;2022-08-18T00:29:02;4.90;;;4.60;;
4676;SDS011;2352;48.180;11.478;2022-08-18T00:32:11;5.20;;;4.72;;
4676;SDS011;2352;48.180;11.478;2022-08-18T00:35:15;4.97;;;4.65;;
4676;SDS011;2352;48.180;11.478;2022-08-18T00:38:21;4.65;;;4.35;;
4676;SDS011;2352;48.180;11.478;2022-08-18T00:41:26;4.97;;;4.68;;
4676;SDS011;2352;48.180;11.478;2022-08-18T00:44:31;4.47;;;4.13;;
4676;SDS011;2352;48.180;11.478;2022-08-18T00:47:34;5.18;;;4.68;;
4676;SDS011;2352;48.180;11.478;2022-08-18T00:50:44;4.80;;;4.50;;
4676;SDS011;2352;48.180;11.478;2022-08-18T00:53:52;3.80;;;3.50;;
4676;SDS011;2352;48.180;11.478;2022-08-18T00:57:02;4.82;;;4.30;;
4676;SDS011;2352;48.180;11.478;2022-08-18T01:00:09;4.97;;;4.20;;
4676;SDS011;2352;48.180;11.478;2022-08-18T01:03:15;4.55;;;4.15;;
4676;SDS011;2352;48.180;11.478;2022-08-18T01:06:27;4.68;;;4.38;;
4676;SDS011;2352;48.180;11.478;2022-08-18T01:09:34;5.32;;;4.80;;
4676;SDS011;2352;48.180;11.478;2022-08-18T01:12:37;4.47;;;4.25;;
4676;SDS011;2352;48.180;11.478;2022-08-18T01:15:48;4.68;;;4.30;;
4676;SDS011;2352;48.180;11.478;2022-08-18T01:18:51;4.32;;;4.03;;
4676;SDS011;2352;48.180;11.478;2022-08-18T01:22:13;4.38;;;4.13;;
4676;SDS011;2352;48.180;11.478;2022-08-18T01:25:24;4.15;;;3.95;;
4676;SDS011;2352;48.180;11.478;2022-08-18T01:28:45;5.18;;;4.47;;
4676;SDS011;2352;48.180;11.478;2022-08-18T01:31:51;4.32;;;4.03;;
4676;SDS011;2352;48.180;11.478;2022-08-18T01:34:56;4.35;;;3.88;;
4676;SDS011;2352;48.180;11.478;2022-08-18T01:38:00;4.65;;;4.32;;
4676;SDS011;2352;48.180;11.478;2022-08-18T01:41:05;4.53;;;4.22;;
4676;SDS011;2352;48.180;11.478;2022-08-18T01:44:28;4.97;;;4.68;;
4676;SDS011;2352;48.180;11.478;2022-08-18T01:47:34;4.88;;;4.55;;
4676;SDS011;2352;48.180;11.478;2022-08-18T01:50:48;3.83;;;3.63;;
4676;SDS011;2352;48.180;11.478;2022-08-18T01:53:54;4.32;;;4.03;;
4676;SDS011;2352;48.180;11.478;2022-08-18T01:56:59;4.38;;;4.07;;
4676;SDS011;2352;48.180;11.478;2022-08-18T02:00:03;4.13;;;3.90;;
4676;SDS011;2352;48.180;11.478;2022-08-18T02:03:08;4.78;;;4.47;;
4676;SDS011;2352;48.180;11.478;2022-08-18T02:06:14;5.03;;;4.72;;
4676;SDS011;2352;48.180;11.478;2022-08-18T02:09:32;4.63;;;4.30;;
4676;SDS011;2352;48.180;11.478;2022-08-18T02:12:36;5.07;;;4.68;;
4676;SDS011;2352;48.180;11.478;2022-08-18T02:15:39;4.43;;;4.13;;
4676;SDS011;2352;48.180;11.478;2022-08-18T02:18:43;4.78;;;4.47;;
4676;SDS011;2352;48.180;11.478;2022-08-18T02:21:49;5.68;;;5.20;;
4676;SDS011;2352;48.180;11.478;2022-08-18T02:24:55;5.07;;;4.68;;
4676;SDS011;2352;48.180;11.478;2022-08-18T02:28:00;4.95;;;4.53;;
4676;SDS011;2352;48.180;11.478;2022-08-18T02:31:04;4.40;;;4.20;;
4676;SDS011;2352;48.180;11.478;2022-08-18T02:34:11;4.53;;;4.25;;
4676;SDS011;2352;48.180;11.478;2022-08-18T02:37:14;4.60;;;4.32;;
4676;SDS011;2352;48.180;11.478;2022-08-18T02:40:17;4.07;;;3.78;;
4676;SDS011;2352;48.180;11.478;2022-08-18T02:43:22;4.22;;;3.90;;
4676;SDS011;2352;48.180;11.478;2022-08-18T02:46:25;4.22;;;4.00;;
4676;SDS011;2352;48.180;11.478;2022-08-18T02:49:31;4.53;;;4.22;;
4676;SDS011;2352;48.180;11.478;2022-08-18T02:52:35;3.92;;;3.72;;
4676;SDS011;2352;48.180;11.478;2022-08-18T02:55:40;4.47;;;4.18;;
4676;SDS011;2352;48.180;11.478;2022-08-18T02:58:45;4.25;;;3.92;;
4676;SDS011;2352;48.180;11.478;2022-08-18T03:01:49;4.20;;;4.00;;
4676;SDS011;2352;48.180;11.478;2022-08-18T03:04:53;4.40;;;4.13;;
4676;SDS011;2352;48.180;11.478;2022-08-18T03:07:56;4.25;;;3.97;;
4676;SDS011;2352;48.180;11.478;2022-08-18T03:11:00;5.43;;;4.03;;
4676;SDS011;2352;48.180;11.478;2022-08-18T03:14:05;5.95;;;5.55;;
4676;SDS011;2352;48.180;11.478;2022-08-18T03:17:11;3.78;;;3.58;;
4676;SDS011;2352;48.180;11.478;2022-08-18T03:20:15;4.32;;;4.10;;
4676;SDS011;2352;48.180;11.478;2022-08-18T03:23:30;4.82;;;4.03;;
4676;SDS011;2352;48.180;11.478;2022-08-18T03:26:34;4.45;;;4.15;;
4676;SDS011;2352;48.180;11.478;2022-08-18T03:29:38;4.70;;;4.03;;
4676;SDS011;2352;48.180;11.478;2022-08-18T03:32:41;3.50;;;3.30;;
4676;SDS011;2352;48.180;11.478;2022-08-18T03:35:46;4.07;;;3.88;;
4676;SDS011;2352;48.180;11.478;2022-08-18T03:38:49;3.97;;;3.67;;
4676;SDS011;2352;48.180;11.478;2022-08-18T03:41:53;3.80;;;3.50;;
4676;SDS011;2352;48.180;11.478;2022-08-18T03:45:03;4.13;;;3.92;;
4676;SDS011;2352;48.180;11.478;2022-08-18T03:48:17;4.30;;;4.00;;
4676;SDS011;2352;48.180;11.478;2022-08-18T03:51:21;4.68;;;4.38;;
4676;SDS011;2352;48.180;11.478;2022-08-18T03:54:26;4.25;;;3.97;;
4676;SDS011;2352;48.180;11.478;2022-08-18T03:57:29;4.20;;;3.95;;
4676;SDS011;2352;48.180;11.478;2022-08-18T04:00:40;3.85;;;3.63;;
4676;SDS011;2352;48.180;11.478;2022-08-18T04:03:44;4.13;;;3.83;;
4676;SDS011;2352;48.180;11.478;2022-08-18T04:06:50;3.85;;;3.58;;
4676;SDS011;2352;48.180;11.478;2022-08-18T04:09:55;4.10;;;3.90;;
4676;SDS011;2352;48.180;11.478;2022-08-18T04:12:58;4.07;;;3.88;;
4676;SDS011;2352;48.180;11.478;2022-08-18T04:16:02;4.30;;;4.05;;
4676;SDS011;2352;48.180;11.478;2022-08-18T04:19:06;4.18;;;3.88;;
4676;SDS011;2352;48.180;11.478;2022-08-18T04:22:10;4.35;;;4.05;;
4676;SDS011;2352;48.180;11.478;2022-08-18T04:25:18;4.10;;;3.90;;
4676;SDS011;2352;48.180;11.478;2022-08-18T04:28:22;4.07;;;3.88;;
4676;SDS011;2352;48.180;11.478;2022-08-18T04:31:26;5.00;;;4.60;;
4676;SDS011;2352;48.180;11.478;2022-08-18T04:34:31;4.57;;;4.28;;
4676;SDS011;2352;48.180;11.478;2022-08-18T04:37:35;4.63;;;4.22;;
4676;SDS011;2352;48.180;11.478;2022-08-18T04:40:42;4.65;;;4.25;;
4676;SDS011;2352;48.180;11.478;2022-08-18T04:43:45;4.18;;;3.95;;
4676;SDS011;2352;48.180;11.478;2022-08-18T04:46:52;4.85;;;3.88;;
4676;SDS011;2352;48.180;11.478;2022-08-18T04:49:55;4.55;;;4.25;;
4676;SDS011;2352;48.180;11.478;2022-08-18T04:53:00;4.57;;;4.28;;
4676;SDS011;2352;48.180;11.478;2022-08-18T04:56:21;4.25;;;4.03;;
4676;SDS011;2352;48.180;11.478;2022-08-18T04:59:26;4.90;;;4.50;;
4676;SDS011;2352;48.180;11.478;2022-08-18T05:02:31;5.50;;;4.85;;
4676;SDS011;2352;48.180;11.478;2022-08-18T05:05:34;5.25;;;4.75;;
4676;SDS011;2352;48.180;11.478;2022-08-18T05:08:37;5.32;;;4.97;;
4676;SDS011;2352;48.180;11.478;2022-08-18T05:11:42;4.25;;;4.03;;
4676;SDS011;2352;48.180;11.478;2022-08-18T05:14:45;4.18;;;3.97;;
4676;SDS011;2352;48.180;11.478;2022-08-18T05:17:50;4.72;;;4.43;;
4676;SDS011;2352;48.180;11.478;2022-08-18T05:20:54;5.25;;;4.85;;
4676;SDS011;2352;48.180;11.478;2022-08-18T05:23:59;5.03;;;4.55;;
4676;SDS011;2352;48.180;11.478;2022-08-18T05:27:02;5.13;;;4.72;;
4676;SDS011;2352;48.180;11.478;2022-08-18T05:30:08;6.45;;;5.50;;
4676;SDS011;2352;48.180;11.478;2022-08-18T05:33:13;5.97;;;5.60;;
4676;SDS011;2352;48.180;11.478;2022-08-18T05:36:19;6.55;;;5.30;;
4676;SDS011;2352;48.180;11.478;2022-08-18T05:39:31;5.22;;;4.82;;
4676;SDS011;2352;48.180;11.478;2022-08-18T05:42:39;6.13;;;4.75;;
4676;SDS011;2352;48.180;11.478;2022-08-18T05:45:43;5.43;;;4.75;;
4676;SDS011;2352;48.180;11.478;2022-08-18T05:48:47;4.88;;;4.55;;
4676;SDS011;2352;48.180;11.478;2022-08-18T05:51:52;4.70;;;4.30;;
4676;SDS011;2352;48.180;11.478;2022-08-18T05:54:59;4.78;;;4.47;;
4676;SDS011;2352;48.180;11.478;2022-08-18T05:58:23;4.93;;;4.63;;
4676;SDS011;2352;48.180;11.478;2022-08-18T06:01:37;5.43;;;5.10;;
4676;SDS011;2352;48.180;11.478;2022-08-18T06:04:48;5.53;;;5.22;;
4676;SDS011;2352;48.180;11.478;2022-08-18T06:07:57;5.25;;;4.95;;
4676;SDS011;2352;48.180;11.478;2022-08-18T06:11:03;5.50;;;5.15;;
4676;SDS011;2352;48.180;11.478;2022-08-18T06:14:17;4.82;;;4.50;;
4676;SDS011;2352;48.180;11.478;2022-08-18T06:17:26;4.32;;;4.03;;
4676;SDS011;2352;48.180;11.478;2022-08-18T06:21:01;5.68;;;5.18;;
4676;SDS011;2352;48.180;11.478;2022-08-18T06:24:30;4.80;;;4.50;;
4676;SDS011;2352;48.180;11.478;2022-08-18T06:27:39;4.38;;;4.07;;
4676;SDS011;2352;48.180;11.478;2022-08-18T06:30:57;4.50;;;4.10;;
4676;SDS011;2352;48.180;11.478;2022-08-18T06:34:08;7.38;;;3.65;;
4676;SDS011;2352;48.180;11.478;2022-08-18T06:37:20;4.35;;;4.03;;
4676;SDS011;2352;48.180;11.478;2022-08-18T06:40:32;5.55;;;5.15;;
4676;SDS011;2352;48.180;11.478;2022-08-18T06:43:35;5.82;;;5.28;;
4676;SDS011;2352;48.180;11.478;2022-08-18T06:46:43;4.43;;;4.13;;
4676;SDS011;2352;48.180;11.478;2022-08-18T06:49:55;5.32;;;4.88;;
4676;SDS011;2352;48.180;11.478;2022-08-18T06:53:07;4.50;;;4.20;;
4676;SDS011;2352;48.180;11.478;2022-08-18T06:56:31;4.55;;;4.25;;
4676;SDS011;2352;48.180;11.478;2022-08-18T06:59:37;5.55;;;4.90;;
4676;SDS011;2352;48.180;11.478;2022-08-18T07:02:42;6.22;;;5.72;;
4676;SDS011;2352;48.180;11.478;2022-08-18T07:05:56;6.03;;;5.43;;
4676;SDS011;2352;48.180;11.478;2022-08-18T07:09:19;5.28;;;4.88;;
4676;SDS011;2352;48.180;11.478;2022-08-18T07:12:25;5.45;;;4.85;;
4676;SDS011;2352;48.180;11.478;2022-08-18T07:15:33;7.03;;;5.40;;
4676;SDS011;2352;48.180;11.478;2022-08-18T07:18:36;4.72;;;4.43;;
4676;SDS011;2352;48.180;11.478;2022-08-18T07:21:39;8.10;;;5.50;;
4676;SDS011;2352;48.180;11.478;2022-08-18T07:24:45;6.05;;;5.65;;
4676;SDS011;2352;48.180;11.478;2022-08-18T07:27:50;5.95;;;5.55;;
4676;SDS011;2352;48.180;11.478;2022-08-18T07:31:06;4.95;;;4.65;;
4676;SDS011;2352;48.180;11.478;2022-08-18T07:34:18;5.85;;;5.35;;
4676;SDS011;2352;48.180;11.478;2022-08-18T07:37:28;5.82;;;5.45;;
4676;SDS011;2352;48.180;11.478;2022-08-18T07:40:35;5.78;;;5.38;;
4676;SDS011;2352;48.180;11.478;2022-08-18T07:43:44;4.95;;;4.65;;
4676;SDS011;2352;48.180;11.478;2022-08-18T07:46:56;5.70;;;5.40;;
4676;SDS011;2352;48.180;11.478;2022-08-18T07:50:05;6.57;;;6.18;;
4676;SDS011;2352;48.180;11.478;2022-08-18T07:53:31;5.70;;;5.30;;
4676;SDS011;2352;48.180;11.478;2022-08-18T07:56:45;6.45;;;5.88;;
4676;SDS011;2352;48.180;11.478;2022-08-18T07:59:57;6.03;;;5.63;;
4676;SDS011;2352;48.180;11.478;2022-08-18T08:03:22;6.40;;;6.00;;
4676;SDS011;2352;48.180;11.478;2022-08-18T08:06:34;5.75;;;5.35;;
4676;SDS011;2352;48.180;11.478;2022-08-18T08:10:07;7.15;;;6.55;;
4676;SDS011;2352;48.180;11.478;2022-08-18T08:13:29;7.18;;;6.78;;
4676;SDS011;2352;48.180;11.478;2022-08-18T08:16:57;4.97;;;4.60;;
4676;SDS011;2352;48.180;11.478;2022-08-18T08:20:11;5.78;;;5.40;;
4676;SDS011;2352;48.180;11.478;2022-08-18T08:23:25;6.32;;;5.72;;
4676;SDS011;2352;48.180;11.478;2022-08-18T08:26:35;7.07;;;6.55;;
4676;SDS011;2352;48.180;11.478;2022-08-18T08:29:53;7.85;;;7.25;;
4676;SDS011;2352;48.180;11.478;2022-08-18T08:33:04;6.90;;;6.50;;
4676;SDS011;2352;48.180;11.478;2022-08-18T08:36:14;7.80;;;7.30;;
4676;SDS011;2352;48.180;11.478;2022-08-18T08:39:23;7.22;;;6.57;;
4676;SDS011;2352;48.180;11.478;2022-08-18T08:42:34;6.43;;;5.60;;
4676;SDS011;2352;48.180;11.478;2022-08-18T08:45:43;5.75;;;5.35;;
4676;SDS011;2352;48.180;11.478;2022-08-18T08:48:50;4.85;;;4.65;;
4676;SDS011;2352;48.180;11.478;2022-08-18T08:51:59;5.93;;;5.50;;
4676;SDS011;2352;48.180;11.478;2022-08-18T08:55:05;5.40;;;5.03;;
4676;SDS011;2352;48.180;11.478;2022-08-18T08:58:16;6.80;;;6.30;;
4676;SDS011;2352;48.180;11.478;2022-08-18T09:01:28;6.20;;;5.75;;
4676;SDS011;2352;48.180;11.478;2022-08-18T09:04:39;5.05;;;4.65;;
4676;SDS011;2352;48.180;11.478;2022-08-18T09:08:19;6.55;;;6.10;;
4676;SDS011;2352;48.180;11.478;2022-08-18T09:11:43;7.05;;;6.65;;
4676;SDS011;2352;48.180;11.478;2022-08-18T09:15:00;7.28;;;6.68;;
4676;SDS011;2352;48.180;11.478;2022-08-18T09:18:33;6.38;;;5.97;;
4676;SDS011;2352;48.180;11.478;2022-08-18T09:21:49;5.78;;;5.28;;
4676;SDS011;2352;48.180;11.478;2022-08-18T09:24:58;7.25;;;6.75;;
4676;SDS011;2352;48.180;11.478;2022-08-18T09:28:06;4.97;;;4.70;;
4676;SDS011;2352;48.180;11.478;2022-08-18T09:31:14;4.70;;;4.40;;
4676;SDS011;2352;48.180;11.478;2022-08-18T09:34:27;5.32;;;5.03;;
4676;SDS011;2352;48.180;11.478;2022-08-18T09:37:43;5.88;;;5.57;;
4676;SDS011;2352;48.180;11.478;2022-08-18T09:41:12;5.47;;;5.13;;
4676;SDS011;2352;48.180;11.478;2022-08-18T09:48:22;5.53;;;5.13;;
4676;SDS011;2352;48.180;11.478;2022-08-18T09:51:33;6.60;;;6.00;;
4676;SDS011;2352;48.180;11.478;2022-08-18T09:54:47;6.05;;;5.70;;
4676;SDS011;2352;48.180;11.478;2022-08-18T10:01:18;5.47;;;5.07;;
4676;SDS011;2352;48.180;11.478;2022-08-18T10:04:40;6.05;;;5.63;;
4676;SDS011;2352;48.180;11.478;2022-08-18T10:07:52;5.15;;;4.85;;
4676;SDS011;2352;48.180;11.478;2022-08-18T10:10:59;5.20;;;4.90;;
4676;SDS011;2352;48.180;11.478;2022-08-18T10:17:59;5.57;;;5.20;;
4676;SDS011;2352;48.180;11.478;2022-08-18T10:21:17;5.90;;;5.50;;
4676;SDS011;2352;48.180;11.478;2022-08-18T10:24:29;5.30;;;4.90;;
4676;SDS011;2352;48.180;11.478;2022-08-18T10:27:46;5.70;;;5.40;;
4676;SDS011;2352;48.180;11.478;2022-08-18T10:31:01;5.85;;;5.47;;
4676;SDS011;2352;48.180;11.478;2022-08-18T10:34:10;6.18;;;5.63;;
4676;SDS011;2352;48.180;11.478;2022-08-18T10:37:20;5.95;;;5.55;;
4676;SDS011;2352;48.180;11.478;2022-08-18T10:40:30;5.80;;;5.43;;
4676;SDS011;2352;48.180;11.478;2022-08-18T10:43:43;6.03;;;5.55;;
4676;SDS011;2352;48.180;11.478;2022-08-18T10:46:57;5.55;;;5.25;;
4676;SDS011;2352;48.180;11.478;2022-08-18T10:50:02;6.18;;;5.68;;
4676;SDS011;2352;48.180;11.478;2022-08-18T10:53:10;6.60;;;6.20;;
4676;SDS011;2352;48.180;11.478;2022-08-18T10:56:40;5.70;;;5.30;;
4676;SDS011;2352;48.180;11.478;2022-08-18T10:59:51;6.20;;;5.80;;
4676;SDS011;2352;48.180;11.478;2022-08-18T11:03:04;4.93;;;4.57;;
4676;SDS011;2352;48.180;11.478;2022-08-18T11:06:36;5.45;;;5.05;;
4676;SDS011;2352;48.180;11.478;2022-08-18T11:09:42;4.65;;;4.35;;
4676;SDS011;2352;48.180;11.478;2022-08-18T11:13:00;5.15;;;4.85;;
4676;SDS011;2352;48.180;11.478;2022-08-18T11:16:13;5.72;;;5.35;;
4676;SDS011;2352;48.180;11.478;2022-08-18T11:19:27;5.32;;;5.03;;
4676;SDS011;2352;48.180;11.478;2022-08-18T11:22:48;6.00;;;5.60;;
4676;SDS011;2352;48.180;11.478;2022-08-18T11:25:55;5.85;;;5.35;;
4676;SDS011;2352;48.180;11.478;2022-08-18T11:29:21;5.32;;;4.82;;
4676;SDS011;2352;48.180;11.478;2022-08-18T11:32:34;6.25;;;5.78;;
4676;SDS011;2352;48.180;11.478;2022-08-18T11:35:44;4.68;;;4.38;;
4676;SDS011;2352;48.180;11.478;2022-08-18T11:38:52;5.55;;;5.15;;
4676;SDS011;2352;48.180;11.478;2022-08-18T11:41:57;5.35;;;4.90;;
4676;SDS011;2352;48.180;11.478;2022-08-18T11:45:04;4.75;;;4.50;;
4676;SDS011;2352;48.180;11.478;2022-08-18T11:48:15;5.68;;;5.22;;
4676;SDS011;2352;48.180;11.478;2022-08-18T11:51:22;4.43;;;4.03;;
4676;SDS011;2352;48.180;11.478;2022-08-18T11:54:32;5.82;;;5.13;;
4676;SDS011;2352;48.180;11.478;2022-08-18T11:57:51;5.30;;;4.93;;
4676;SDS011;2352;48.180;11.478;2022-08-18T12:01:01;5.38;;;5.00;;
4676;SDS011;2352;48.180;11.478;2022-08-18T12:04:15;4.35;;;4.13;;
4676;SDS011;2352;48.180;11.478;2022-08-18T12:07:27;3.85;;;3.63;;
4676;SDS011;2352;48.180;11.478;2022-08-18T12:10:32;4.38;;;4.18;;
4676;SDS011;2352;48.180;11.478;2022-08-18T12:13:37;5.07;;;4.78;;
4676;SDS011;2352;48.180;11.478;2022-08-18T12:16:47;4.93;;;4.63;;
4676;SDS011;2352;48.180;11.478;2022-08-18T12:19:54;4.82;;;4.60;;
4676;SDS011;2352;48.180;11.478;2022-08-18T12:22:59;3.95;;;3.75;;
4676;SDS011;2352;48.180;11.478;2022-08-18T12:26:02;4.60;;;4.40;;
4676;SDS011;2352;48.180;11.478;2022-08-18T12:29:26;4.53;;;4.22;;
4676;SDS011;2352;48.180;11.478;2022-08-18T12:32:45;5.30;;;4.88;;
4676;SDS011;2352;48.180;11.478;2022-08-18T12:35:56;3.78;;;3.58;;
4676;SDS011;2352;48.180;11.478;2022-08-18T12:39:00;5.20;;;4.80;;
4676;SDS011;2352;48.180;11.478;2022-08-18T12:42:05;5.35;;;5.05;;
4676;SDS011;2352;48.180;11.478;2022-08-18T12:45:10;4.93;;;4.63;;
4676;SDS011;2352;48.180;11.478;2022-08-18T12:48:14;5.18;;;4.82;;
4676;SDS011;2352;48.180;11.478;2022-08-18T12:51:22;5.20;;;4.90;;
4676;SDS011;2352;48.180;11.478;2022-08-18T12:54:31;4.38;;;4.03;;
4676;SDS011;2352;48.180;11.478;2022-08-18T12:57:36;5.22;;;4.93;;
4676;SDS011;2352;48.180;11.478;2022-08-18T13:00:53;6.00;;;4.95;;
4676;SDS011;2352;48.180;11.478;2022-08-18T13:03:58;4.78;;;4.38;;
4676;SDS011;2352;48.180;11.478;2022-08-18T13:07:13;5.20;;;4.72;;
4676;SDS011;2352;48.180;11.478;2022-08-18T13:10:19;4.68;;;4.43;;
4676;SDS011;2352;48.180;11.478;2022-08-18T13:13:42;4.72;;;4.43;;
4676;SDS011;2352;48.180;11.478;2022-08-18T13:16:48;5.47;;;5.18;;
4676;SDS011;2352;48.180;11.478;2022-08-18T13:19:56;5.47;;;5.07;;
4676;SDS011;2352;48.180;11.478;2022-08-18T13:23:00;5.28;;;4.97;;
4676;SDS011;2352;48.180;11.478;2022-08-18T13:26:11;5.25;;;4.90;;
4676;SDS011;2352;48.180;11.478;2022-08-18T13:29:18;5.20;;;4.90;;
4676;SDS011;2352;48.180;11.478;2022-08-18T13:32:21;4.90;;;4.60;;
4676;SDS011;2352;48.180;11.478;2022-08-18T13:35:29;5.55;;;5.20;;
4676;SDS011;2352;48.180;11.478;2022-08-18T13:38:41;5.82;;;5.32;;
4676;SDS011;2352;48.180;11.478;2022-08-18T13:41:45;5.28;;;4.93;;
4676;SDS011;2352;48.180;11.478;2022-08-18T13:44:50;5.97;;;5.53;;
4676;SDS011;2352;48.180;11.478;2022-08-18T13:47:57;4.80;;;4.50;;
4676;SDS011;2352;48.180;11.478;2022-08-18T13:51:04;5.47;;;5.15;;
4676;SDS011;2352;48.180;11.478;2022-08-18T13:54:10;5.93;;;5.60;;
4676;SDS011;2352;48.180;11.478;2022-08-18T13:57:30;4.50;;;4.20;;
4676;SDS011;2352;48.180;11.478;2022-08-18T14:00:34;7.40;;;4.82;;
4676;SDS011;2352;48.180;11.478;2022-08-18T14:03:37;5.40;;;4.90;;
4676;SDS011;2352;48.180;11.478;2022-08-18T14:06:49;5.47;;;5.07;;
4676;SDS011;2352;48.180;11.478;2022-08-18T14:09:59;4.72;;;4.38;;
4676;SDS011;2352;48.180;11.478;2022-08-18T14:13:06;5.78;;;5.28;;
4676;SDS011;2352;48.180;11.478;2022-08-18T14:16:24;4.80;;;4.50;;
4676;SDS011;2352;48.180;11.478;2022-08-18T14:19:28;6.03;;;5.63;;
4676;SDS011;2352;48.180;11.478;2022-08-18T14:22:50;5.43;;;4.93;;
4676;SDS011;2352;48.180;11.478;2022-08-18T14:26:11;4.72;;;4.43;;
4676;SDS011;2352;48.180;11.478;2022-08-18T14:29:31;5.47;;;4.97;;
4676;SDS011;2352;48.180;11.478;2022-08-18T14:32:47;5.55;;;5.25;;
4676;SDS011;2352;48.180;11.478;2022-08-18T14:35:51;4.78;;;4.47;;
4676;SDS011;2352;48.180;11.478;2022-08-18T14:39:08;5.78;;;5.38;;
4676;SDS011;2352;48.180;11.478;2022-08-18T14:42:11;6.13;;;5.70;;
4676;SDS011;2352;48.180;11.478;2022-08-18T14:45:18;8.88;;;5.93;;
4676;SDS011;2352;48.180;11.478;2022-08-18T14:48:34;6.07;;;5.45;;
4676;SDS011;2352;48.180;11.478;2022-08-18T14:51:37;5.22;;;4.72;;
4676;SDS011;2352;48.180;11.478;2022-08-18T14:54:44;5.80;;;5.30;;
4676;SDS011;2352;48.180;11.478;2022-08-18T14:57:51;10.93;;;5.68;;
4676;SDS011;2352;48.180;11.478;2022-08-18T15:00:55;6.07;;;5.57;;
4676;SDS011;2352;48.180;11.478;2022-08-18T15:03:59;4.80;;;4.50;;
4676;SDS011;2352;48.180;11.478;2022-08-18T15:07:20;6.65;;;6.00;;
4676;SDS011;2352;48.180;11.478;2022-08-18T15:10:25;5.63;;;5.32;;
4676;SDS011;2352;48.180;11.478;2022-08-18T15:13:29;5.10;;;4.70;;
4676;SDS011;2352;48.180;11.478;2022-08-18T15:16:32;5.05;;;4.75;;
4676;SDS011;2352;48.180;11.478;2022-08-18T15:19:39;5.18;;;4.88;;
4676;SDS011;2352;48.180;11.478;2022-08-18T15:23:01;5.70;;;5.30;;
4676;SDS011;2352;48.180;11.478;2022-08-18T15:26:30;5.72;;;5.22;;
4676;SDS011;2352;48.180;11.478;2022-08-18T15:29:34;5.68;;;5.28;;
4676;SDS011;2352;48.180;11.478;2022-08-18T15:32:41;5.53;;;5.22;;
4676;SDS011;2352;48.180;11.478;2022-08-18T15:35:48;5.32;;;5.03;;
4676;SDS011;2352;48.180;11.478;2022-08-18T15:38:52;5.80;;;5.50;;
4676;SDS011;2352;48.180;11.478;2022-08-18T15:41:58;4.78;;;4.47;;
4676;SDS011;2352;48.180;11.478;2022-08-18T15:45:04;6.07;;;5.22;;
4676;SDS011;2352;48.180;11.478;2022-08-18T15:48:12;5.53;;;5.22;;
4676;SDS011;2352;48.180;11.478;2022-08-18T15:51:15;5.35;;;5.05;;
4676;SDS011;2352;48.180;11.478;2022-08-18T15:54:20;5.22;;;4.93;;
4676;SDS011;2352;48.180;11.478;2022-08-18T15:57:26;5.38;;;4.97;;
4676;SDS011;2352;48.180;11.478;2022-08-18T16:00:41;5.70;;;5.40;;
4676;SDS011;2352;48.180;11.478;2022-08-18T16:03:46;6.00;;;5.40;;
4676;SDS011;2352;48.180;11.478;2022-08-18T16:06:51;5.75;;;5.35;;
4676;SDS011;2352;48.180;11.478;2022-08-18T16:09:56;5.57;;;5.28;;
4676;SDS011;2352;48.180;11.478;2022-08-18T16:13:00;5.90;;;5.43;;
4676;SDS011;2352;48.180;11.478;2022-08-18T16:16:07;6.15;;;5.72;;
4676;SDS011;2352;48.180;11.478;2022-08-18T16:19:11;5.65;;;5.25;;
4676;SDS011;2352;48.180;11.478;2022-08-18T16:22:14;6.15;;;5.65;;
4676;SDS011;2352;48.180;11.478;2022-08-18T16:25:18;5.55;;;5.22;;
4676;SDS011;2352;48.180;11.478;2022-08-18T16:28:22;6.13;;;5.72;;
4676;SDS011;2352;48.180;11.478;2022-08-18T16:31:35;6.28;;;5.88;;
4676;SDS011;2352;48.180;11.478;2022-08-18T16:34:38;5.78;;;5.38;;
4676;SDS011;2352;48.180;11.478;2022-08-18T16:37:41;6.30;;;5.85;;
4676;SDS011;2352;48.180;11.478;2022-08-18T16:40:44;5.63;;;5.25;;
4676;SDS011;2352;48.180;11.478;2022-08-18T16:43:49;6.00;;;5.50;;
4676;SDS011;2352;48.180;11.478;2022-08-18T16:46:52;6.35;;;5.97;;
4676;SDS011;2352;48.180;11.478;2022-08-18T16:49:55;5.88;;;5.25;;
4676;SDS011;2352;48.180;11.478;2022-08-18T16:52:59;6.70;;;6.07;;
4676;SDS011;2352;48.180;11.478;2022-08-18T16:56:03;5.72;;;5.43;;
4676;SDS011;2352;48.180;11.478;2022-08-18T16:59:12;5.93;;;5.53;;
4676;SDS011;2352;48.180;11.478;2022-08-18T17:02:33;6.65;;;6.25;;
4676;SDS011;2352;48.180;11.478;2022-08-18T17:05:59;6.00;;;5.70;;
4676;SDS011;2352;48.180;11.478;2022-08-18T17:09:03;6.00;;;5.60;;
4676;SDS011;2352;48.180;11.478;2022-08-18T17:12:10;6.07;;;5.68;;
4676;SDS011;2352;48.180;11.478;2022-08-18T17:15:14;6.18;;;5.78;;
4676;SDS011;2352;48.180;11.478;2022-08-18T17:18:17;6.72;;;6.13;;
4676;SDS011;2352;48.180;11.478;2022-08-18T17:21:23;6.97;;;6.57;;
4676;SDS011;2352;48.180;11.478;2022-08-18T17:24:27;7.65;;;7.13;;
4676;SDS011;2352;48.180;11.478;2022-08-18T17:27:32;6.88;;;6.47;;
4676;SDS011;2352;48.180;11.478;2022-08-18T17:30:41;8.25;;;7.72;;
4676;SDS011;2352;48.180;11.478;2022-08-18T17:33:50;10.98;;;6.68;;
4676;SDS011;2352;48.180;11.478;2022-08-18T17:36:57;4.65;;;4.38;;
4676;SDS011;2352;48.180;11.478;2022-08-18T17:40:04;4.63;;;4.32;;
4676;SDS011;2352;48.180;11.478;2022-08-18T17:43:14;5.43;;;5.03;;
4676;SDS011;2352;48.180;11.478;2022-08-18T17:46:21;4.10;;;3.80;;
4676;SDS011;2352;48.180;11.478;2022-08-18T17:49:29;4.47;;;4.18;;
4676;SDS011;2352;48.180;11.478;2022-08-18T17:53:04;2.97;;;2.03;;
4676;SDS011;2352;48.180;11.478;2022-08-18T17:56:09;2.58;;;1.90;;
4676;SDS011;2352;48.180;11.478;2022-08-18T17:59:21;1.70;;;1.10;;
4676;SDS011;2352;48.180;11.478;2022-08-18T18:02:49;1.30;;;0.90;;
4676;SDS011;2352;48.180;11.478;2022-08-18T18:05:58;0.52;;;0.52;;
4676;SDS011;2352;48.180;11.478;2022-08-18T18:09:27;0.63;;;0.60;;
4676;SDS011;2352;48.180;11.478;2022-08-18T18:12:32;0.50;;;0.50;;
4676;SDS011;2352;48.180;11.478;2022-08-18T18:15:37;1.58;;;0.60;;
4676;SDS011;2352;48.180;11.478;2022-08-18T18:18:42;0.73;;;0.68;;
4676;SDS011;2352;48.180;11.478;2022-08-18T18:21:46;0.57;;;0.57;;
4676;SDS011;2352;48.180;11.478;2022-08-18T18:25:03;1.10;;;0.77;;
4676;SDS011;2352;48.180;11.478;2022-08-18T18:28:12;0.75;;;0.40;;
4676;SDS011;2352;48.180;11.478;2022-08-18T18:31:34;0.98;;;0.80;;
4676;SDS011;2352;48.180;11.478;2022-08-18T18:34:43;1.00;;;0.90;;
4676;SDS011;2352;48.180;11.478;2022-08-18T18:37:48;0.95;;;0.93;;
4676;SDS011;2352;48.180;11.478;2022-08-18T18:40:53;1.58;;;1.48;;
4676;SDS011;2352;48.180;11.478;2022-08-18T18:44:03;1.70;;;1.60;;
4676;SDS011;2352;48.180;11.478;2022-08-18T18:47:08;1.95;;;1.85;;
4676;SDS011;2352;48.180;11.478;2022-08-18T18:50:26;1.50;;;1.40;;
4676;SDS011;2352;48.180;11.478;2022-08-18T18:53:38;1.48;;;1.38;;
4676;SDS011;2352;48.180;11.478;2022-08-18T18:56:54;1.45;;;1.35;;
4676;SDS011;2352;48.180;11.478;2022-08-18T19:00:00;3.83;;;1.05;;
4676;SDS011;2352;48.180;11.478;2022-08-18T19:03:16;1.10;;;0.98;;
4676;SDS011;2352;48.180;11.478;2022-08-18T19:06:27;2.15;;;1.13;;
4676;SDS011;2352;48.180;11.478;2022-08-18T19:09:36;2.10;;;1.30;;
4676;SDS011;2352;48.180;11.478;2022-08-18T19:12:51;1.20;;;1.00;;
4676;SDS011;2352;48.180;11.478;2022-08-18T19:16:03;0.90;;;0.90;;
4676;SDS011;2352;48.180;11.478;2022-08-18T19:19:26;1.65;;;0.80;;
4676;SDS011;2352;48.180;11.478;2022-08-18T19:22:41;2.13;;;1.02;;
4676;SDS011;2352;48.180;11.478;2022-08-18T19:25:55;1.67;;;1.58;;
4676;SDS011;2352;48.180;11.478;2022-08-18T19:29:08;1.13;;;1.10;;